Terminal Aerodrome Forecast
Issued by NWS Corpus Christi, TX

Home | Current Version | Previous Version | Text Only | Print | Product List | Glossary On
Versions: 1 2 3 4 5 6 7 8 9 10 11 12 13 14 15 16 17 18 19 20 21
000
FTUS44 KCRP 190700 AAA
TAFVCT
TAF AMD
KVCT 190703Z 1907/2006 00000KT 1/4SM FG VV005
      TEMPO 1907/1910 1/2SM FG SCT005 BKN250
     FM191330 VRB02KT 3SM BR SCT010 BKN250
     FM191500 11010KT P6SM SCT025 BKN250
     FM191800 14014G18KT P6SM BKN035 OVC200
     FM200400 13005KT P6SM SCT012 OVC150=

USA.gov is the U.S. government's official web portal to all federal, state and local government web resources and services.